Time;durP1;ratioP1;P1;durP2;ratioP2;P2;SDS_P1;SDS_P2;PMS_P1;PMS_P2;Temp;Humidity;BMP_temperature;BMP_pressure;BME280_temperature;BME280_humidity;BME280_pressure;Samples;Min_cycle;Max_cycle;Signal;HPM_P1;HPM_P2
2024/02/13 00:00:59;;;;;;;0.32;0.32;;;5.10;99.90;;;;;;4932941;29;20037;-81
2024/02/13 00:03:26;;;;;;;0.50;0.47;;;5.00;99.90;;;;;;4911182;29;20051;-85
2024/02/13 00:05:52;;;;;;;0.10;0.10;;;4.90;99.90;;;;;;4927442;29;20066;-81
2024/02/13 00:08:18;;;;;;;0.55;0.55;;;4.80;99.90;;;;;;4950177;29;20027;-81
2024/02/13 00:10:45;;;;;;;0.63;0.57;;;4.60;99.90;;;;;;4933709;29;20047;-81
2024/02/13 00:13:12;;;;;;;0.40;0.40;;;4.60;99.90;;;;;;4944691;29;20051;-81
2024/02/13 00:15:39;;;;;;;0.20;0.20;;;4.50;99.90;;;;;;4926676;29;20056;-81
2024/02/13 00:18:07;;;;;;;2.72;1.88;;;4.40;99.90;;;;;;4916441;29;20158;-81
2024/02/13 00:20:33;;;;;;;0.20;0.17;;;4.40;99.90;;;;;;4916668;29;20048;-81
2024/02/13 00:23:00;;;;;;;0.20;0.20;;;4.30;99.90;;;;;;4927375;29;20077;-81
2024/02/13 00:25:28;;;;;;;0.95;0.95;;;4.20;99.90;;;;;;4939947;29;20058;-84
2024/02/13 00:27:55;;;;;;;5.28;1.95;;;4.20;99.90;;;;;;4918727;29;20485;-81
2024/02/13 00:30:21;;;;;;;0.73;0.73;;;4.10;99.90;;;;;;4949198;29;20062;-81
2024/02/13 00:32:47;;;;;;;0.30;0.30;;;4.00;1.00;;;;;;4917135;29;20047;-82
2024/02/13 00:35:14;;;;;;;0.30;0.30;;;4.00;1.00;;;;;;4939795;28;20031;-82
2024/02/13 00:37:40;;;;;;;0.20;0.20;;;3.80;1.00;;;;;;4926539;29;20040;-82
2024/02/13 00:40:09;;;;;;;0.40;0.38;;;3.70;1.00;;;;;;4947979;28;20039;-82
2024/02/13 00:42:36;;;;;;;0.13;0.13;;;3.70;1.00;;;;;;4932567;29;20040;-81
2024/02/13 00:45:05;;;;;;;0.30;0.30;;;3.60;1.00;;;;;;4928439;29;20051;-82
2024/02/13 00:47:31;;;;;;;0.50;0.50;;;3.50;1.00;;;;;;4929514;29;20047;-81
2024/02/13 00:49:58;;;;;;;0.15;0.15;;;3.50;1.00;;;;;;4907704;29;20054;-81
2024/02/13 00:52:28;;;;;;;0.20;0.20;;;3.40;4.40;;;;;;4935352;29;20499;-81
2024/02/13 00:54:58;;;;;;;0.75;0.75;;;3.40;12.50;;;;;;4928044;29;20059;-81
2024/02/13 00:57:25;;;;;;;0.15;0.15;;;3.30;37.00;;;;;;4914916;29;20051;-82
2024/02/13 00:59:51;;;;;;;0.10;0.10;;;3.30;94.30;;;;;;4943253;29;20042;-83
2024/02/13 01:02:17;;;;;;;0.10;0.10;;;3.30;99.90;;;;;;4912842;29;20053;-82
2024/02/13 01:04:44;;;;;;;0.60;0.60;;;3.20;99.90;;;;;;4936550;29;20051;-82
2024/02/13 01:07:11;;;;;;;0.82;0.50;;;3.20;99.90;;;;;;4921541;29;20070;-82
2024/02/13 01:09:37;;;;;;;0.63;0.63;;;3.20;99.90;;;;;;4937117;29;20046;-82
2024/02/13 01:12:06;;;;;;;0.28;0.28;;;3.10;99.90;;;;;;4937423;29;20043;-82
2024/02/13 01:14:32;;;;;;;0.40;0.40;;;3.10;99.90;;;;;;4933419;29;20055;-82
2024/02/13 01:17:00;;;;;;;0.38;0.38;;;3.10;99.90;;;;;;4940704;28;20046;-81
2024/02/13 01:19:26;;;;;;;0.32;0.32;;;3.00;99.90;;;;;;4933950;29;20035;-82
2024/02/13 01:21:53;;;;;;;0.52;0.28;;;3.00;99.90;;;;;;4948042;29;20035;-81
2024/02/13 01:24:19;;;;;;;0.73;0.73;;;2.90;99.90;;;;;;4918915;29;20044;-82
2024/02/13 01:26:45;;;;;;;0.13;0.13;;;2.90;99.90;;;;;;4924082;29;20038;-81
2024/02/13 01:29:11;;;;;;;0.10;0.10;;;2.90;99.90;;;;;;4923708;29;20046;-81
2024/02/13 01:31:38;;;;;;;0.20;0.20;;;2.90;99.90;;;;;;4909887;29;20413;-81
2024/02/13 01:34:07;;;;;;;0.10;0.10;;;2.90;99.90;;;;;;4934726;29;20040;-81
2024/02/13 01:36:37;;;;;;;0.10;0.10;;;2.80;99.90;;;;;;4944447;29;20050;-81
2024/02/13 01:39:04;;;;;;;1.55;1.45;;;2.90;99.90;;;;;;4938963;28;20520;-82
2024/02/13 01:41:30;;;;;;;0.10;0.10;;;2.90;99.90;;;;;;4938769;29;20458;-83
2024/02/13 01:43:57;;;;;;;0.20;0.20;;;2.90;99.90;;;;;;4924693;29;20046;-80
2024/02/13 01:46:26;;;;;;;0.20;0.20;;;2.90;99.90;;;;;;4938116;29;20067;-81
2024/02/13 01:48:58;;;;;;;0.43;0.43;;;2.90;99.90;;;;;;4933188;29;20044;-81
2024/02/13 01:51:27;;;;;;;3.05;1.45;;;2.80;99.90;;;;;;4932412;29;20051;-81
2024/02/13 01:54:03;;;;;;;0.50;0.50;;;2.80;99.90;;;;;;4928636;29;20027;-81
2024/02/13 01:56:31;;;;;;;0.65;0.63;;;2.80;99.90;;;;;;4916478;29;20043;-81
2024/02/13 01:58:57;;;;;;;0.77;0.73;;;2.80;99.90;;;;;;4942157;29;20058;-81
2024/02/13 02:01:30;;;;;;;2.08;1.38;;;2.80;99.90;;;;;;4929696;29;20040;-81
2024/02/13 02:03:58;;;;;;;;;;;2.70;99.90;;;;;;4932557;29;20034;-81
2024/02/13 02:06:25;;;;;;;4.50;1.10;;;2.70;99.90;;;;;;4947504;29;19911;-81
2024/02/13 02:08:52;;;;;;;0.10;0.10;;;2.70;99.90;;;;;;4931990;29;20031;-82
2024/02/13 02:11:18;;;;;;;1.85;1.08;;;2.70;99.90;;;;;;4943425;28;20383;-81
2024/02/13 02:13:45;;;;;;;1.30;1.20;;;2.70;1.00;;;;;;4932242;29;20051;-81
2024/02/13 02:16:11;;;;;;;0.45;0.45;;;2.60;1.00;;;;;;4931532;29;20048;-81
2024/02/13 02:18:37;;;;;;;0.43;0.43;;;2.70;1.00;;;;;;4926493;29;20070;-81
2024/02/13 02:21:04;;;;;;;0.20;0.20;;;2.60;1.00;;;;;;4947692;28;20035;-82
2024/02/13 02:23:31;;;;;;;1.20;0.85;;;2.60;1.00;;;;;;4931298;29;20043;-81
2024/02/13 02:25:57;;;;;;;0.40;0.40;;;2.60;1.00;;;;;;4936074;29;20473;-81
2024/02/13 02:28:24;;;;;;;1.40;1.02;;;2.60;1.00;;;;;;4934651;29;20044;-81
2024/02/13 02:30:51;;;;;;;0.57;0.45;;;2.70;16.30;;;;;;4930059;29;20039;-82
2024/02/13 02:33:17;;;;;;;0.38;0.38;;;2.70;1.00;;;;;;4936874;29;20047;-81
2024/02/13 02:35:43;;;;;;;0.10;0.10;;;2.60;1.00;;;;;;4927041;29;20401;-81
2024/02/13 02:38:10;;;;;;;0.20;0.20;;;2.50;1.00;;;;;;4936367;29;20035;-81
2024/02/13 02:40:40;;;;;;;1.65;1.00;;;2.50;1.00;;;;;;4904197;29;20354;-81
2024/02/13 02:43:06;;;;;;;0.30;0.30;;;2.50;1.00;;;;;;4909715;29;20052;-81
2024/02/13 02:45:33;;;;;;;5.07;2.40;;;2.40;1.00;;;;;;4936342;29;20039;-81
2024/02/13 02:47:59;;;;;;;1.60;1.23;;;2.40;1.00;;;;;;4938391;29;20264;-81
2024/02/13 02:50:26;;;;;;;2.22;2.08;;;2.40;1.00;;;;;;4935277;29;20043;-82
2024/02/13 02:52:52;;;;;;;1.65;1.17;;;2.40;1.00;;;;;;4936244;29;20046;-82
2024/02/13 02:55:18;;;;;;;1.42;1.33;;;2.40;1.00;;;;;;4920433;29;20058;-81
2024/02/13 02:57:45;;;;;;;1.23;0.95;;;2.40;1.00;;;;;;4929441;29;20031;-81
2024/02/13 03:00:14;;;;;;;1.33;0.98;;;2.40;1.00;;;;;;4948262;29;20042;-81
2024/02/13 03:02:41;;;;;;;1.20;1.05;;;2.40;1.00;;;;;;4920697;29;20055;-81
2024/02/13 03:05:11;;;;;;;1.00;0.90;;;2.30;1.00;;;;;;4938741;29;20043;-82
2024/02/13 03:07:38;;;;;;;0.40;0.40;;;2.40;1.00;;;;;;4921931;29;20043;-82
2024/02/13 03:10:11;;;;;;;0.30;0.30;;;2.30;1.00;;;;;;4936218;29;20035;-81
2024/02/13 03:12:37;;;;;;;0.57;0.57;;;2.30;1.00;;;;;;4934160;29;20502;-83
2024/02/13 03:15:04;;;;;;;0.28;0.28;;;2.20;1.00;;;;;;4947946;29;20047;-82
2024/02/13 03:17:31;;;;;;;0.47;0.47;;;2.20;1.00;;;;;;4919653;29;20054;-81
2024/02/13 03:19:57;;;;;;;0.20;0.20;;;2.10;1.00;;;;;;4938638;29;20054;-81
2024/02/13 03:22:25;;;;;;;0.38;0.38;;;2.10;1.00;;;;;;4920010;29;20035;-81
2024/02/13 03:24:51;;;;;;;1.20;0.90;;;2.10;1.00;;;;;;4904757;29;20051;-81
2024/02/13 03:27:18;;;;;;;0.55;0.55;;;2.00;1.00;;;;;;4906423;29;20055;-77
2024/02/13 03:29:44;;;;;;;1.10;0.95;;;1.90;1.00;;;;;;4929758;29;20475;-81
2024/02/13 03:32:10;;;;;;;0.45;0.45;;;1.80;1.00;;;;;;4927520;29;20043;-79
2024/02/13 03:34:36;;;;;;;0.10;0.10;;;1.80;1.00;;;;;;4936784;29;20039;-86
2024/02/13 03:37:03;;;;;;;0.35;0.35;;;1.80;1.00;;;;;;4944409;29;20035;-81
2024/02/13 03:39:29;;;;;;;0.10;0.10;;;1.80;1.00;;;;;;4927177;29;20389;-81
2024/02/13 03:41:55;;;;;;;0.20;0.20;;;1.70;1.00;;;;;;4943556;29;20035;-81
2024/02/13 03:44:22;;;;;;;1.02;0.93;;;1.60;1.00;;;;;;4934796;29;20039;-81
2024/02/13 03:46:50;;;;;;;0.10;0.10;;;1.60;9.30;;;;;;4919630;29;20043;-81
2024/02/13 03:49:16;;;;;;;0.88;0.55;;;1.50;27.20;;;;;;4924190;29;20492;-81
2024/02/13 03:51:43;;;;;;;1.73;1.63;;;1.50;53.30;;;;;;4929226;29;20039;-82
2024/02/13 03:54:09;;;;;;;0.10;0.10;;;1.40;81.50;;;;;;4943779;29;20043;-81
2024/02/13 03:56:37;;;;;;;1.55;0.75;;;1.40;99.90;;;;;;4930279;29;20043;-81
2024/02/13 03:59:04;;;;;;;0.55;0.55;;;1.30;99.90;;;;;;4939943;29;20040;-81
2024/02/13 04:01:31;;;;;;;0.10;0.10;;;1.30;99.90;;;;;;4928569;29;20047;-81
2024/02/13 04:03:58;;;;;;;0.30;0.30;;;1.30;99.90;;;;;;4948677;29;20560;-81
2024/02/13 04:06:24;;;;;;;0.40;0.40;;;1.30;99.90;;;;;;4913664;29;20044;-81
2024/02/13 04:08:50;;;;;;;0.45;0.45;;;1.20;99.90;;;;;;4918000;29;20039;-82
2024/02/13 04:11:16;;;;;;;2.55;1.05;;;1.10;99.90;;;;;;4927271;29;20397;-82
2024/02/13 04:13:43;;;;;;;0.13;0.13;;;1.10;99.90;;;;;;4945799;29;20046;-81
2024/02/13 04:16:10;;;;;;;1.00;0.35;;;1.00;99.90;;;;;;4920862;29;20043;-81
2024/02/13 04:18:37;;;;;;;0.32;0.32;;;1.10;99.90;;;;;;4935178;29;20055;-81
2024/02/13 04:21:04;;;;;;;0.30;0.30;;;1.00;99.90;;;;;;4932966;29;20074;-81
2024/02/13 04:23:30;;;;;;;0.45;0.45;;;1.10;99.90;;;;;;4933955;29;20051;-81
2024/02/13 04:25:56;;;;;;;0.10;0.10;;;1.00;99.90;;;;;;4930966;29;20050;-81
2024/02/13 04:28:22;;;;;;;0.10;0.10;;;1.00;99.90;;;;;;4928954;29;20139;-81
2024/02/13 04:30:49;;;;;;;0.10;0.10;;;0.90;99.90;;;;;;4936795;29;20374;-81
2024/02/13 04:33:15;;;;;;;0.20;0.20;;;1.00;99.90;;;;;;4905881;29;20048;-81
2024/02/13 04:35:42;;;;;;;0.08;0.08;;;0.90;99.90;;;;;;4933987;29;20046;-81
2024/02/13 04:38:09;;;;;;;0.10;0.10;;;0.90;99.90;;;;;;4932675;29;20499;-81
2024/02/13 04:40:39;;;;;;;1.65;1.10;;;0.90;99.90;;;;;;4928368;29;20038;-81
2024/02/13 04:43:06;;;;;;;0.43;0.43;;;0.90;99.90;;;;;;4945922;29;20398;-81
2024/02/13 04:45:33;;;;;;;4.47;1.05;;;0.80;99.90;;;;;;4926939;29;20043;-81
2024/02/13 04:47:59;;;;;;;0.30;0.30;;;0.70;99.90;;;;;;4934093;29;20054;-81
2024/02/13 04:50:27;;;;;;;0.10;0.10;;;0.60;99.90;;;;;;4943699;29;20046;-81
2024/02/13 04:52:55;;;;;;;2.00;0.63;;;0.60;99.90;;;;;;4907805;29;20054;-81
2024/02/13 04:55:22;;;;;;;0.38;0.38;;;0.60;99.90;;;;;;4932795;29;20515;-81
2024/02/13 04:57:48;;;;;;;0.20;0.20;;;0.50;99.90;;;;;;4946940;29;20038;-81
2024/02/13 05:00:24;;;;;;;7.13;1.98;;;0.50;99.90;;;;;;4933205;29;20101;-80
2024/02/13 05:03:02;;;;;;;0.43;0.40;;;0.50;99.90;;;;;;4912593;29;20491;-81
2024/02/13 05:08:20;;;;;;;0.30;0.30;;;0.50;99.90;;;;;;4945871;29;20098;-81
2024/02/13 05:10:46;;;;;;;0.82;0.82;;;0.50;99.90;;;;;;4926203;29;20040;-81
2024/02/13 05:13:17;;;;;;;0.70;0.57;;;0.40;99.90;;;;;;4924424;29;20485;-81
2024/02/13 05:15:43;;;;;;;;;;;0.50;99.90;;;;;;4921357;29;20047;-84
2024/02/13 05:18:09;;;;;;;1.02;0.77;;;0.50;99.90;;;;;;4928090;29;19921;-81
2024/02/13 05:20:36;;;;;;;0.98;0.80;;;0.50;99.90;;;;;;4951647;29;20039;-81
2024/02/13 05:23:02;;;;;;;0.10;0.10;;;0.50;99.90;;;;;;4931538;29;20044;-81
2024/02/13 05:25:29;;;;;;;0.93;0.93;;;0.50;99.90;;;;;;4911763;29;20039;-81
2024/02/13 05:27:56;;;;;;;0.40;0.30;;;0.50;99.90;;;;;;4936179;29;20050;-81
2024/02/13 05:30:22;;;;;;;0.55;0.40;;;0.50;99.90;;;;;;4946928;29;20105;-81
2024/02/13 05:32:48;;;;;;;0.40;0.40;;;0.50;99.90;;;;;;4901931;29;20047;-82
2024/02/13 05:35:15;;;;;;;0.40;0.40;;;0.40;99.90;;;;;;4929299;29;20046;-80
2024/02/13 05:37:41;;;;;;;0.43;0.43;;;0.40;99.90;;;;;;4950402;29;20048;-82
2024/02/13 05:40:08;;;;;;;0.55;0.55;;;0.30;99.90;;;;;;4937028;29;20039;-80
2024/02/13 05:42:34;;;;;;;1.15;0.82;;;0.30;99.90;;;;;;4948703;29;20027;-81
2024/02/13 05:45:01;;;;;;;1.38;1.10;;;0.30;99.90;;;;;;4932944;29;20048;-79
2024/02/13 05:47:34;;;;;;;0.45;0.20;;;0.40;99.90;;;;;;4904642;29;20048;-80
2024/02/13 05:50:07;;;;;;;0.20;0.20;;;0.30;99.90;;;;;;4925959;29;20039;-81
2024/02/13 05:52:38;;;;;;;0.20;0.20;;;0.30;99.90;;;;;;4944949;29;20043;-81
2024/02/13 05:55:06;;;;;;;1.27;1.17;;;0.30;99.90;;;;;;4931010;29;20225;-81
2024/02/13 05:57:32;;;;;;;0.50;0.50;;;0.30;99.90;;;;;;4933382;29;20075;-81
2024/02/13 05:59:58;;;;;;;1.17;0.90;;;0.30;99.90;;;;;;4935221;29;20051;-81
2024/02/13 06:02:25;;;;;;;0.30;0.28;;;0.30;99.90;;;;;;4936614;29;20050;-81
2024/02/13 06:04:52;;;;;;;1.30;1.23;;;0.30;99.90;;;;;;4931000;29;20084;-81
2024/02/13 06:07:18;;;;;;;0.50;0.47;;;0.30;99.90;;;;;;4935920;29;20469;-81
2024/02/13 06:09:44;;;;;;;0.40;0.40;;;0.30;99.90;;;;;;4916506;29;20059;-81
2024/02/13 06:12:12;;;;;;;0.40;0.25;;;0.40;99.90;;;;;;4935058;29;20056;-81
2024/02/13 06:14:39;;;;;;;1.48;1.38;;;0.40;99.90;;;;;;4919294;29;20044;-81
2024/02/13 06:17:05;;;;;;;1.05;0.98;;;0.50;99.90;;;;;;4915604;29;20044;-81
2024/02/13 06:19:31;;;;;;;1.20;1.20;;;0.60;99.90;;;;;;4935192;29;20050;-81
2024/02/13 06:21:57;;;;;;;0.40;0.30;;;0.60;99.90;;;;;;4919567;29;20050;-81
2024/02/13 06:24:24;;;;;;;0.32;0.32;;;0.70;99.90;;;;;;4919637;29;20048;-81
2024/02/13 06:26:51;;;;;;;3.30;1.48;;;0.80;99.90;;;;;;4911676;29;20102;-81
2024/02/13 06:29:17;;;;;;;0.22;0.22;;;0.80;99.90;;;;;;4929054;29;20453;-81
2024/02/13 06:31:44;;;;;;;11.27;1.33;;;0.90;99.90;;;;;;4915081;29;20044;-80
2024/02/13 06:34:10;;;;;;;0.35;0.35;;;1.00;99.90;;;;;;4928765;29;20032;-81
2024/02/13 06:36:36;;;;;;;2.17;1.35;;;1.10;99.90;;;;;;4927058;29;20039;-82
2024/02/13 06:39:02;;;;;;;0.95;0.93;;;1.20;99.90;;;;;;4917995;29;20046;-81
2024/02/13 06:41:29;;;;;;;0.30;0.30;;;1.20;99.90;;;;;;4924131;29;20048;-81
2024/02/13 06:43:55;;;;;;;0.98;0.75;;;1.30;99.90;;;;;;4920072;29;20055;-82
2024/02/13 06:46:21;;;;;;;5.40;2.03;;;1.40;99.90;;;;;;4920675;29;20042;-82
2024/02/13 06:48:47;;;;;;;0.95;0.95;;;1.40;99.90;;;;;;4911316;29;20047;-82
2024/02/13 06:51:13;;;;;;;1.58;0.93;;;1.40;99.90;;;;;;4911889;29;20044;-81
2024/02/13 06:53:40;;;;;;;1.58;1.48;;;1.40;99.90;;;;;;4927466;29;20036;-81
2024/02/13 06:56:06;;;;;;;0.38;0.38;;;1.40;99.90;;;;;;4910712;29;20043;-81
2024/02/13 06:58:33;;;;;;;1.05;0.95;;;1.40;99.90;;;;;;4918024;29;20043;-82
2024/02/13 07:00:59;;;;;;;0.82;0.75;;;1.50;99.90;;;;;;4909297;29;20040;-82
2024/02/13 07:03:25;;;;;;;1.67;1.48;;;1.40;99.90;;;;;;4923337;29;20123;-81
2024/02/13 07:05:52;;;;;;;6.00;5.47;;;1.50;99.90;;;;;;4918283;29;20051;-82
2024/02/13 07:08:18;;;;;;;4.72;2.72;;;1.40;99.90;;;;;;4936758;29;20040;-82
2024/02/13 07:10:44;;;;;;;12.85;3.90;;;1.40;99.90;;;;;;4925598;29;20036;-81
2024/02/13 07:13:10;;;;;;;8.43;5.30;;;1.40;99.90;;;;;;4921782;29;20051;-81
2024/02/13 07:15:37;;;;;;;3.42;3.20;;;1.40;99.90;;;;;;4936006;29;20031;-81
2024/02/13 07:18:06;;;;;;;6.35;1.42;;;1.30;99.90;;;;;;4940775;29;20396;-81
2024/02/13 07:20:33;;;;;;;1.42;1.33;;;1.40;99.90;;;;;;4928421;29;20074;-81
2024/02/13 07:22:59;;;;;;;1.05;0.95;;;1.50;99.90;;;;;;4923010;29;20031;-82
2024/02/13 07:25:25;;;;;;;0.65;0.65;;;1.40;99.90;;;;;;4943324;29;20059;-81
2024/02/13 07:27:52;;;;;;;1.58;1.42;;;1.50;99.90;;;;;;4950705;28;20054;-82
2024/02/13 07:30:18;;;;;;;1.23;1.20;;;1.50;99.90;;;;;;4910910;29;20047;-81
2024/02/13 07:32:45;;;;;;;2.70;2.50;;;1.60;99.90;;;;;;4931334;29;20036;-81
2024/02/13 07:35:12;;;;;;;1.30;1.20;;;1.60;99.90;;;;;;4940172;29;20035;-81
2024/02/13 07:37:38;;;;;;;3.72;2.35;;;1.70;99.90;;;;;;4931046;29;20047;-81
2024/02/13 07:40:05;;;;;;;0.93;0.88;;;1.70;99.90;;;;;;4936216;29;20032;-84
2024/02/13 07:42:31;;;;;;;0.68;0.63;;;1.70;99.90;;;;;;4928852;29;20051;-83
2024/02/13 07:44:58;;;;;;;2.92;2.00;;;1.80;99.90;;;;;;4931196;29;20046;-82
2024/02/13 07:47:27;;;;;;;1.20;0.75;;;1.90;99.90;;;;;;4923209;29;20047;-81
2024/02/13 07:49:54;;;;;;;0.43;0.43;;;2.00;99.90;;;;;;4922992;29;20043;-83
2024/02/13 07:52:21;;;;;;;1.20;1.13;;;2.10;99.90;;;;;;4929161;29;20044;-83
2024/02/13 07:54:47;;;;;;;1.83;1.73;;;2.30;99.90;;;;;;4920910;29;20424;-81
2024/02/13 07:57:16;;;;;;;0.85;0.57;;;2.50;99.90;;;;;;4941211;29;20032;-82
2024/02/13 07:59:46;;;;;;;1.25;1.17;;;2.60;99.90;;;;;;4935470;29;20043;-81
2024/02/13 08:02:13;;;;;;;0.20;0.20;;;2.80;99.90;;;;;;4917693;29;20076;-82
2024/02/13 08:04:40;;;;;;;0.77;0.55;;;3.10;99.90;;;;;;4948598;29;20038;-84
2024/02/13 08:07:07;;;;;;;4.32;2.25;;;3.40;99.90;;;;;;4924288;29;20055;-83
2024/02/13 08:09:34;;;;;;;1.40;1.30;;;3.60;99.90;;;;;;4910004;29;20048;-83
2024/02/13 08:12:06;;;;;;;2.92;1.48;;;3.80;99.90;;;;;;4913351;29;20062;-84
2024/02/13 08:14:33;;;;;;;1.85;0.90;;;4.00;99.90;;;;;;4928627;29;20139;-83
2024/02/13 08:16:59;;;;;;;0.10;0.10;;;4.20;99.90;;;;;;4931069;29;20031;-83
2024/02/13 08:19:28;;;;;;;1.10;1.05;;;4.40;99.90;;;;;;4908121;29;20048;-83
2024/02/13 08:21:54;;;;;;;0.77;0.77;;;4.80;99.90;;;;;;4915536;29;20047;-86
2024/02/13 08:24:20;;;;;;;1.27;1.17;;;4.90;99.90;;;;;;4930127;29;20043;-83
2024/02/13 08:26:46;;;;;;;0.90;0.68;;;5.20;99.90;;;;;;4914832;29;20047;-83
2024/02/13 08:29:15;;;;;;;1.00;0.95;;;5.40;1.00;;;;;;4912245;29;20251;-81
2024/02/13 08:31:41;;;;;;;1.92;1.30;;;5.60;99.90;;;;;;4937858;29;20465;-82
2024/02/13 08:34:07;;;;;;;1.10;0.80;;;5.70;99.90;;;;;;4947091;29;20036;-82
2024/02/13 08:36:36;;;;;;;1.00;0.98;;;5.80;99.90;;;;;;4926171;29;20039;-80
2024/02/13 08:39:03;;;;;;;0.85;0.85;;;6.10;99.90;;;;;;4933287;29;20052;-82
2024/02/13 08:41:31;;;;;;;0.28;0.28;;;6.30;48.00;;;;;;4930779;29;20058;-82
2024/02/13 08:43:58;;;;;;;1.73;1.23;;;6.40;1.00;;;;;;4934919;29;20098;-83
2024/02/13 08:46:25;;;;;;;1.85;1.23;;;6.40;1.00;;;;;;4935642;29;20050;-83
2024/02/13 08:48:53;;;;;;;0.80;0.80;;;6.50;1.00;;;;;;4931358;29;20404;-80
2024/02/13 08:51:19;;;;;;;1.98;1.38;;;6.60;1.00;;;;;;4939717;29;20036;-82
2024/02/13 08:53:46;;;;;;;0.90;0.90;;;6.60;1.00;;;;;;4936680;29;20474;-80
2024/02/13 08:56:13;;;;;;;0.32;0.32;;;6.70;1.00;;;;;;4934567;29;20048;-83
2024/02/13 08:58:40;;;;;;;3.63;0.90;;;6.80;1.00;;;;;;4924785;29;20046;-83
2024/02/13 09:01:06;;;;;;;1.48;1.08;;;6.90;1.00;;;;;;4903780;29;20051;-80
2024/02/13 09:03:33;;;;;;;0.35;0.35;;;7.00;1.00;;;;;;4917853;29;20040;-79
2024/02/13 09:06:04;;;;;;;1.55;0.90;;;7.00;99.90;;;;;;4933329;29;20046;-80
2024/02/13 09:08:32;;;;;;;16.33;1.58;;;7.10;99.90;;;;;;4928028;29;20247;-80
2024/02/13 09:10:59;;;;;;;1.73;1.42;;;7.20;99.90;;;;;;4932989;29;20472;-81
2024/02/13 09:13:27;;;;;;;16.98;1.75;;;7.30;99.90;;;;;;4942930;29;20429;-80
2024/02/13 09:15:55;;;;;;;1.48;1.38;;;7.50;99.90;;;;;;4936430;29;20468;-80
2024/02/13 09:18:22;;;;;;;2.10;1.55;;;7.50;99.90;;;;;;4919833;29;20043;-80
2024/02/13 09:20:49;;;;;;;7.47;0.90;;;7.50;99.90;;;;;;4948184;29;20035;-79
2024/02/13 09:23:19;;;;;;;2.85;1.33;;;7.70;99.90;;;;;;4938766;29;20023;-81
2024/02/13 09:25:51;;;;;;;1.05;0.43;;;7.90;99.90;;;;;;4927935;29;20044;-79
2024/02/13 09:28:17;;;;;;;0.70;0.70;;;7.90;99.90;;;;;;4946295;29;20247;-80
2024/02/13 09:30:47;;;;;;;0.20;0.20;;;7.80;99.90;;;;;;4924338;29;20392;-81
2024/02/13 09:33:14;;;;;;;0.73;0.73;;;7.70;99.90;;;;;;4921974;29;20048;-80
2024/02/13 09:35:40;;;;;;;0.88;0.88;;;7.80;99.90;;;;;;4929847;29;20511;-78
2024/02/13 09:38:07;;;;;;;1.13;1.13;;;8.00;99.90;;;;;;4943939;28;20047;-80
2024/02/13 09:40:34;;;;;;;0.73;0.73;;;8.10;99.90;;;;;;4926828;29;20042;-78
2024/02/13 09:43:01;;;;;;;1.95;1.27;;;8.10;99.90;;;;;;4941357;29;20043;-79
2024/02/13 09:45:29;;;;;;;0.50;0.50;;;8.20;80.40;;;;;;4918092;29;20044;-79
2024/02/13 09:48:03;;;;;;;0.40;0.40;;;8.20;88.40;;;;;;4945580;29;20068;-80
2024/02/13 09:50:37;;;;;;;0.20;0.20;;;8.10;91.40;;;;;;4933109;29;20035;-81
2024/02/13 09:53:21;;;;;;;0.65;0.65;;;8.30;68.30;;;;;;4945237;29;20036;-81
2024/02/13 09:55:49;;;;;;;1.02;1.02;;;8.20;52.20;;;;;;4922315;29;20051;-81
2024/02/13 09:58:16;;;;;;;0.50;0.50;;;8.50;45.20;;;;;;4937529;29;20044;-82
2024/02/13 10:00:43;;;;;;;0.88;0.88;;;8.70;1.00;;;;;;4919258;29;20044;-80
2024/02/13 10:03:11;;;;;;;0.65;0.65;;;9.00;1.00;;;;;;4924495;29;20055;-79
2024/02/13 10:05:39;;;;;;;0.55;0.55;;;9.30;1.00;;;;;;4918943;29;20055;-81
2024/02/13 10:08:11;;;;;;;1.48;0.57;;;9.40;99.90;;;;;;4902958;29;20067;-80
2024/02/13 10:10:42;;;;;;;1.45;0.75;;;9.30;99.90;;;;;;4941313;29;20039;-81
2024/02/13 10:13:12;;;;;;;0.45;0.45;;;9.20;99.90;;;;;;4928219;29;20055;-81
2024/02/13 10:15:44;;;;;;;1.40;1.00;;;9.10;99.90;;;;;;4933465;29;20046;-80
2024/02/13 10:18:13;;;;;;;0.47;0.47;;;9.10;1.00;;;;;;4931268;29;20054;-80
2024/02/13 10:20:40;;;;;;;1.45;1.00;;;9.10;99.90;;;;;;4931864;29;20095;-80
2024/02/13 10:23:07;;;;;;;0.40;0.40;;;9.40;99.90;;;;;;4932906;29;20101;-80
2024/02/13 10:25:34;;;;;;;0.20;0.20;;;9.60;99.90;;;;;;4915376;29;20062;-80
2024/02/13 10:28:02;;;;;;;2.67;0.57;;;9.80;99.90;;;;;;4941247;29;20039;-82
2024/02/13 10:30:32;;;;;;;0.63;0.63;;;10.10;99.90;;;;;;4916113;29;20043;-80
2024/02/13 10:33:09;;;;;;;3.67;1.30;;;10.00;99.90;;;;;;4932572;29;20043;-80
2024/02/13 10:35:36;;;;;;;0.90;0.90;;;10.00;99.90;;;;;;4941622;29;20461;-80
2024/02/13 10:38:03;;;;;;;0.30;0.30;;;9.60;99.90;;;;;;4918706;29;20481;-82
2024/02/13 10:40:33;;;;;;;0.55;0.55;;;9.50;99.90;;;;;;4916161;29;20479;-81
2024/02/13 10:43:01;;;;;;;0.90;0.82;;;9.60;99.90;;;;;;4946027;29;20054;-81
2024/02/13 10:45:32;;;;;;;0.22;0.22;;;9.80;99.90;;;;;;4946215;29;20043;-81
2024/02/13 10:48:17;;;;;;;0.47;0.47;;;9.80;89.80;;;;;;4923099;29;20418;-80
2024/02/13 10:50:43;;;;;;;0.70;0.70;;;10.20;61.10;;;;;;4932970;29;20398;-80
2024/02/13 10:53:11;;;;;;;0.30;0.30;;;10.10;31.80;;;;;;4918792;29;20055;-81
2024/02/13 10:55:40;;;;;;;0.40;0.40;;;10.00;43.10;;;;;;4915242;29;20043;-80
2024/02/13 10:58:07;;;;;;;0.63;0.60;;;10.20;40.60;;;;;;4942648;29;20496;-81
2024/02/13 11:00:34;;;;;;;0.47;0.47;;;10.30;7.40;;;;;;4944556;29;20035;-80
2024/02/13 11:03:00;;;;;;;0.28;0.25;;;10.20;1.90;;;;;;4932014;29;20032;-82
2024/02/13 11:05:28;;;;;;;1.27;1.00;;;10.00;1.00;;;;;;4945777;29;20035;-80
2024/02/13 11:07:55;;;;;;;0.15;0.15;;;9.60;1.00;;;;;;4926755;29;20035;-81
2024/02/13 11:10:34;;;;;;;0.38;0.35;;;9.30;1.00;;;;;;4922498;29;20054;-80
2024/02/13 11:13:09;;;;;;;0.45;0.45;;;9.30;3.00;;;;;;4934927;29;20051;-80
2024/02/13 11:15:39;;;;;;;1.38;0.52;;;9.30;13.80;;;;;;4947117;29;20043;-77
2024/02/13 11:18:12;;;;;;;0.10;0.10;;;9.10;1.00;;;;;;4948345;28;20039;-80
2024/02/13 11:20:42;;;;;;;1.55;0.93;;;9.10;18.10;;;;;;4953454;28;20460;-80
2024/02/13 11:23:15;;;;;;;2.45;1.10;;;9.10;1.00;;;;;;4936462;29;20043;-80
2024/02/13 11:25:55;;;;;;;0.50;0.40;;;9.10;1.00;;;;;;4942931;29;20393;-79
2024/02/13 11:28:21;;;;;;;0.40;0.30;;;9.00;1.00;;;;;;4942274;29;20054;-77
2024/02/13 11:30:48;;;;;;;0.28;0.28;;;8.90;1.00;;;;;;4935587;29;20047;-79
2024/02/13 11:33:18;;;;;;;6.28;1.67;;;8.90;1.00;;;;;;4930731;29;20369;-80
2024/02/13 11:35:56;;;;;;;2.42;0.20;;;8.90;1.00;;;;;;4937740;29;20027;-80
2024/02/13 11:38:27;;;;;;;0.65;0.65;;;9.00;1.00;;;;;;4918774;29;20039;-79
2024/02/13 11:40:56;;;;;;;;;;;9.00;1.00;;;;;;4929401;29;20052;-81
2024/02/13 11:43:25;;;;;;;0.20;0.20;;;9.10;1.00;;;;;;4943759;29;19918;-80
2024/02/13 11:46:00;;;;;;;0.52;0.52;;;9.10;1.00;;;;;;4925771;29;20036;-81
2024/02/13 11:48:26;;;;;;;0.20;0.20;;;9.20;1.00;;;;;;4924509;29;20044;-82
2024/02/13 11:50:55;;;;;;;0.30;0.30;;;9.20;1.00;;;;;;4917279;29;20043;-80
2024/02/13 11:53:25;;;;;;;0.15;0.15;;;9.30;1.00;;;;;;4922255;29;20055;-81
2024/02/13 11:55:54;;;;;;;0.27;0.27;;;9.40;1.00;;;;;;4930206;29;20040;-80
2024/02/13 11:58:22;;;;;;;0.22;0.22;;;9.50;1.00;;;;;;4934531;29;20039;-81
2024/02/13 12:01:01;;;;;;;0.20;0.20;;;9.60;1.00;;;;;;4933924;29;20054;-81
2024/02/13 12:03:29;;;;;;;0.32;0.32;;;9.70;1.00;;;;;;4950877;29;20031;-80
2024/02/13 12:06:16;;;;;;;0.10;0.10;;;9.90;1.00;;;;;;4940971;29;20471;-81
2024/02/13 12:08:44;;;;;;;0.10;0.10;;;10.30;1.00;;;;;;4940361;29;20139;-80
2024/02/13 12:11:11;;;;;;;0.35;0.35;;;10.40;1.00;;;;;;4916391;29;20052;-81
2024/02/13 12:13:37;;;;;;;0.30;0.30;;;10.30;1.00;;;;;;4945150;29;20035;-79
2024/02/13 12:16:04;;;;;;;0.40;0.40;;;10.30;1.00;;;;;;4926665;29;20062;-79
2024/02/13 12:18:30;;;;;;;2.65;0.73;;;10.30;1.00;;;;;;4918041;29;20040;-79
2024/02/13 12:20:58;;;;;;;0.40;0.40;;;10.50;1.00;;;;;;4947322;29;20042;-77
2024/02/13 12:23:25;;;;;;;15.18;0.88;;;10.40;99.90;;;;;;4926409;29;20044;-79
2024/02/13 12:26:01;;;;;;;0.30;0.15;;;10.40;99.90;;;;;;4908355;29;20047;-80
2024/02/13 12:28:28;;;;;;;0.50;0.40;;;10.60;1.00;;;;;;4935212;29;20047;-80
2024/02/13 12:30:55;;;;;;;2.20;0.75;;;10.70;99.90;;;;;;4934040;29;20028;-79
2024/02/13 12:33:23;;;;;;;0.30;0.30;;;10.60;99.90;;;;;;4934395;29;20048;-79
2024/02/13 12:36:01;;;;;;;0.55;0.43;;;10.60;99.90;;;;;;4919443;29;20528;-81
2024/02/13 12:38:28;;;;;;;0.20;0.20;;;10.60;99.90;;;;;;4930303;29;20515;-80
2024/02/13 12:40:56;;;;;;;0.10;0.10;;;10.50;99.90;;;;;;4935592;29;20039;-78
2024/02/13 12:43:27;;;;;;;1.05;0.52;;;10.30;99.90;;;;;;4941649;28;20039;-78
2024/02/13 12:45:55;;;;;;;7.82;1.38;;;10.10;99.90;;;;;;4926940;29;20047;-78
2024/02/13 12:48:22;;;;;;;0.20;0.20;;;10.00;1.00;;;;;;4927713;29;20442;-80
2024/02/13 12:50:52;;;;;;;0.85;0.85;;;10.30;1.00;;;;;;4915296;29;20499;-79
2024/02/13 12:53:21;;;;;;;0.10;0.10;;;10.40;99.90;;;;;;4941663;29;20482;-80
2024/02/13 12:55:49;;;;;;;0.20;0.20;;;10.50;99.90;;;;;;4915844;29;20035;-80
2024/02/13 12:58:22;;;;;;;1.27;0.32;;;10.50;99.90;;;;;;4909156;29;20143;-80
2024/02/13 13:00:49;;;;;;;0.20;0.20;;;10.50;99.90;;;;;;4922071;29;20490;-80
2024/02/13 13:03:17;;;;;;;0.10;0.10;;;10.40;99.90;;;;;;4943939;29;20039;-83
2024/02/13 13:05:49;;;;;;;0.30;0.20;;;10.30;99.90;;;;;;4934639;29;20059;-81